createdAt,value
2018-04-14T00:00:10.405Z,11.08
2018-04-14T00:01:10.374Z,11.09
2018-04-14T00:02:10.391Z,11.13
2018-04-14T00:03:10.340Z,11.13
2018-04-14T00:04:10.354Z,11.12
2018-04-14T00:05:10.322Z,11.11
2018-04-14T00:06:10.293Z,11.03
2018-04-14T00:07:10.262Z,11.12
2018-04-14T00:08:10.268Z,11.03
2018-04-14T00:09:10.224Z,11.01
2018-04-14T00:10:10.205Z,11.05
2018-04-14T00:11:10.184Z,11.00
2018-04-14T00:12:10.167Z,11.00
2018-04-14T00:13:10.197Z,10.97
2018-04-14T00:14:10.139Z,10.91
2018-04-14T00:15:10.110Z,10.90
2018-04-14T00:16:10.121Z,10.83
2018-04-14T00:17:10.095Z,10.83
2018-04-14T00:18:10.086Z,10.83
2018-04-14T00:19:10.058Z,10.79
2018-04-14T00:20:10.060Z,10.80
2018-04-14T00:21:10.043Z,10.76
2018-04-14T00:22:09.985Z,10.72
2018-04-14T00:23:09.956Z,10.61
2018-04-14T00:24:09.964Z,10.65
2018-04-14T00:25:09.921Z,10.61
2018-04-14T00:26:09.930Z,10.61
2018-04-14T00:27:09.929Z,10.57
2018-04-14T00:28:09.901Z,10.65
2018-04-14T00:29:09.853Z,10.62
2018-04-14T00:30:09.830Z,10.64
2018-04-14T00:31:09.805Z,10.60
2018-04-14T00:32:09.814Z,10.52
2018-04-14T00:33:09.795Z,10.55
2018-04-14T00:34:09.776Z,10.55
2018-04-14T00:35:09.732Z,10.54
2018-04-14T00:36:09.739Z,10.46
2018-04-14T00:37:09.719Z,10.48
2018-04-14T00:38:09.681Z,10.45
2018-04-14T00:39:09.656Z,10.38
2018-04-14T00:40:09.678Z,10.45
2018-04-14T00:41:09.614Z,10.39
2018-04-14T00:42:09.601Z,10.43
2018-04-14T00:43:09.574Z,10.54
2018-04-14T00:44:09.574Z,10.60
2018-04-14T00:45:09.558Z,10.55
2018-04-14T00:46:09.520Z,10.52
2018-04-14T00:47:09.498Z,10.55
2018-04-14T00:48:09.483Z,10.61
2018-04-14T00:50:33.394Z,10.70
2018-04-14T00:51:33.385Z,10.52
2018-04-14T00:52:33.331Z,10.46
2018-04-14T00:53:33.321Z,10.62
2018-04-14T00:54:33.283Z,10.58
2018-04-14T00:55:33.255Z,10.65
2018-04-14T00:56:33.223Z,10.62
2018-04-14T00:57:33.215Z,10.60
2018-04-14T00:58:33.213Z,10.61
2018-04-14T00:59:33.175Z,10.60
2018-04-14T01:00:33.179Z,10.65
2018-04-14T01:01:33.143Z,10.61
2018-04-14T01:02:33.137Z,10.58
2018-04-14T01:03:33.119Z,10.60
2018-04-14T01:04:33.070Z,10.61
2018-04-14T01:05:33.063Z,10.64
2018-04-14T01:06:33.039Z,10.67
2018-04-14T01:07:33.030Z,10.64
2018-04-14T01:08:33.023Z,10.70
2018-04-14T01:09:32.983Z,10.61
2018-04-14T01:10:32.979Z,10.67
2018-04-14T01:11:32.948Z,10.65
2018-04-14T01:12:32.928Z,10.76
2018-04-14T01:13:32.901Z,10.70
2018-04-14T01:14:32.880Z,10.76
2018-04-14T01:15:32.879Z,10.76
2018-04-14T01:16:32.868Z,10.82
2018-04-14T01:17:32.852Z,10.80
2018-04-14T01:18:32.806Z,10.82
2018-04-14T01:19:32.783Z,10.80
2018-04-14T01:20:32.766Z,10.83
2018-04-14T01:21:32.754Z,10.82
2018-04-14T01:22:32.748Z,10.85
2018-04-14T01:23:32.732Z,10.91
2018-04-14T01:24:32.701Z,10.87
2018-04-14T01:25:32.691Z,10.90
2018-04-14T01:26:32.656Z,10.86
2018-04-14T01:27:32.635Z,10.93
2018-04-14T01:28:32.615Z,11.04
2018-04-14T01:29:32.612Z,11.00
2018-04-14T01:30:32.576Z,11.00
2018-04-14T01:31:32.558Z,11.03
2018-04-14T01:32:32.602Z,11.03
2018-04-14T01:33:32.529Z,11.04
2018-04-14T01:34:32.532Z,11.00
2018-04-14T01:35:32.482Z,11.01
2018-04-14T01:36:32.464Z,10.95
2018-04-14T01:37:32.450Z,11.03
2018-04-14T01:39:55.655Z,11.12
2018-04-14T01:40:55.622Z,11.12
2018-04-14T01:41:55.464Z,11.09
2018-04-14T01:42:55.460Z,11.11
2018-04-14T01:43:55.421Z,11.16
2018-04-14T01:44:55.400Z,11.16
2018-04-14T01:45:55.390Z,11.19
2018-04-14T01:46:55.379Z,11.11
2018-04-14T01:47:55.358Z,11.13
2018-04-14T01:48:55.333Z,11.15
2018-04-14T01:49:55.330Z,11.13
2018-04-14T01:52:18.445Z,11.13
2018-04-14T01:54:41.513Z,11.09
2018-04-14T01:55:41.316Z,11.11
2018-04-14T01:56:41.302Z,11.13
2018-04-14T01:57:41.274Z,11.16
2018-04-14T01:58:41.251Z,11.05
2018-04-14T01:59:41.222Z,11.00
2018-04-14T02:00:41.203Z,11.08
2018-04-14T02:03:04.307Z,11.05
2018-04-14T02:04:04.199Z,10.98
2018-04-14T02:05:04.172Z,10.98
2018-04-14T02:06:04.164Z,10.98
2018-04-14T02:07:04.125Z,11.00
2018-04-14T02:08:04.118Z,10.95
2018-04-14T02:09:04.091Z,10.94
2018-04-14T02:10:04.063Z,10.97
2018-04-14T02:12:26.137Z,10.93
2018-04-14T02:13:26.129Z,10.90
2018-04-14T02:15:20.511Z,10.91
2018-04-14T02:16:20.450Z,10.91
2018-04-14T02:18:43.504Z,10.86
2018-04-14T02:19:43.502Z,10.80
2018-04-14T02:20:43.513Z,10.82
2018-04-14T02:21:43.418Z,10.79
2018-04-14T02:22:43.411Z,10.79
2018-04-14T02:23:43.366Z,10.78
2018-04-14T02:24:43.361Z,10.80
2018-04-14T02:25:43.325Z,10.78
2018-04-14T02:26:43.330Z,10.80
2018-04-14T02:27:43.293Z,10.78
2018-04-14T02:28:43.288Z,10.86
2018-04-14T02:29:43.247Z,10.83
2018-04-14T02:30:43.230Z,10.85
2018-04-14T02:31:43.209Z,10.83
2018-04-14T02:32:43.217Z,10.87
2018-04-14T02:33:43.194Z,10.86
2018-04-14T02:36:05.042Z,10.91
2018-04-14T02:37:04.715Z,10.94
2018-04-14T02:38:59.288Z,10.95
2018-04-14T02:41:22.258Z,10.91
2018-04-14T02:43:45.085Z,10.93
2018-04-14T02:44:45.081Z,10.94
2018-04-14T02:45:45.041Z,10.91
2018-04-14T02:46:45.035Z,10.91
2018-04-14T02:47:45.021Z,10.91
2018-04-14T02:50:08.010Z,10.85
2018-04-14T02:51:07.945Z,10.85
2018-04-14T02:52:07.973Z,10.83
2018-04-14T02:53:07.943Z,10.91
2018-04-14T02:54:07.909Z,10.85
2018-04-14T02:55:07.879Z,10.95
2018-04-14T02:56:07.855Z,10.87
2018-04-14T02:57:07.874Z,10.90
2018-04-14T02:58:07.868Z,10.87
2018-04-14T02:59:07.828Z,10.87
2018-04-14T03:00:07.773Z,10.86
2018-04-14T03:01:07.791Z,10.87
2018-04-14T03:02:07.740Z,10.90
2018-04-14T03:03:07.737Z,10.87
2018-04-14T03:04:07.699Z,10.91
2018-04-14T03:05:07.706Z,10.87
2018-04-14T03:06:07.669Z,10.87
2018-04-14T03:07:07.667Z,10.91
2018-04-14T03:08:07.639Z,10.87
2018-04-14T03:09:07.650Z,10.91
2018-04-14T03:10:07.599Z,10.90
2018-04-14T03:12:30.675Z,10.90
2018-04-14T03:14:53.579Z,10.91
2018-04-14T03:15:53.574Z,10.90
2018-04-14T03:16:53.537Z,10.83
2018-04-14T03:17:53.511Z,10.80
2018-04-14T03:18:53.508Z,10.73
2018-04-14T03:19:53.487Z,10.73
2018-04-14T03:20:53.461Z,10.65
2018-04-14T03:21:53.433Z,10.58
2018-04-14T03:22:53.459Z,10.61
2018-04-14T03:23:53.414Z,10.55
2018-04-14T03:24:53.398Z,10.61
2018-04-14T03:25:53.365Z,10.64
2018-04-14T03:26:53.358Z,10.68
2018-04-14T03:27:53.347Z,10.70
2018-04-14T03:28:53.328Z,10.75
2018-04-14T03:29:53.282Z,10.78
2018-04-14T03:32:16.394Z,10.93
2018-04-14T03:33:16.287Z,10.87
2018-04-14T03:34:16.276Z,10.85
2018-04-14T03:35:16.262Z,10.87
2018-04-14T03:36:16.223Z,10.86
2018-04-14T03:37:16.210Z,10.91
2018-04-14T03:38:16.177Z,10.85
2018-04-14T03:39:16.154Z,10.86
2018-04-14T03:41:39.241Z,10.85
2018-04-14T03:42:39.157Z,10.86
2018-04-14T03:43:39.134Z,10.85
2018-04-14T03:44:39.134Z,10.80
2018-04-14T03:45:39.130Z,10.75
2018-04-14T03:48:02.452Z,10.72
2018-04-14T03:49:02.077Z,10.68
2018-04-14T03:50:02.070Z,10.73
2018-04-14T03:52:26.063Z,10.68
2018-04-14T03:53:33.781Z,10.55
2018-04-14T03:55:20.393Z,10.61
2018-04-14T03:56:20.355Z,10.54
2018-04-14T03:57:20.355Z,10.48
2018-04-14T03:59:52.028Z,10.55
2018-04-14T04:02:06.380Z,10.55
2018-04-14T04:03:06.356Z,10.55
2018-04-14T04:04:06.332Z,10.60
2018-04-14T04:05:06.282Z,10.57
2018-04-14T04:06:06.269Z,10.57
2018-04-14T04:07:06.251Z,10.52
2018-04-14T04:08:06.221Z,10.52
2018-04-14T04:10:29.236Z,10.48
2018-04-14T04:11:29.204Z,10.35
2018-04-14T04:12:29.219Z,10.28
2018-04-14T04:13:29.163Z,10.39
2018-04-14T04:14:29.175Z,10.30
2018-04-14T04:16:52.217Z,10.27
2018-04-14T04:19:15.158Z,10.27
2018-04-14T04:20:15.154Z,10.34
2018-04-14T04:21:15.267Z,10.42
2018-04-14T04:23:38.118Z,10.52
2018-04-14T04:24:38.120Z,10.49
2018-04-14T04:27:01.167Z,10.38
2018-04-14T04:28:01.073Z,10.45
2018-04-14T04:29:01.070Z,10.45
2018-04-14T04:30:01.041Z,10.45
2018-04-14T04:31:01.002Z,10.54
2018-04-14T04:32:00.996Z,10.58
2018-04-14T04:33:00.980Z,10.58
2018-04-14T04:35:23.998Z,10.65
2018-04-14T04:36:24.103Z,10.60
2018-04-14T04:38:48.277Z,10.70
2018-04-14T04:39:47.988Z,10.70
2018-04-14T04:40:47.943Z,10.76
2018-04-14T04:41:47.921Z,10.76
2018-04-14T04:42:47.888Z,10.75
2018-04-14T04:45:11.108Z,10.76
2018-04-14T04:46:10.871Z,10.78
2018-04-14T04:47:10.845Z,10.83
2018-04-14T04:48:10.839Z,10.83
2018-04-14T04:49:10.887Z,10.82
2018-04-14T04:50:10.795Z,10.85
2018-04-14T04:52:33.838Z,10.91
2018-04-14T04:53:33.797Z,10.86
2018-04-14T04:54:33.910Z,10.91
2018-04-14T04:55:33.755Z,10.91
2018-04-14T04:56:33.721Z,10.90
2018-04-14T04:57:33.709Z,10.87
2018-04-14T04:58:33.678Z,10.90
2018-04-14T04:59:33.650Z,10.93
2018-04-14T05:00:33.659Z,10.93
2018-04-14T05:02:57.123Z,10.97
2018-04-14T05:03:56.685Z,10.95
2018-04-14T05:04:56.607Z,10.95
2018-04-14T05:05:56.608Z,10.93
2018-04-14T05:06:56.569Z,10.98
2018-04-14T05:09:19.614Z,11.01
2018-04-14T05:10:19.548Z,11.01
2018-04-14T05:11:19.557Z,10.98
2018-04-14T05:12:19.536Z,11.01
2018-04-14T05:13:19.544Z,11.03
2018-04-14T05:14:19.469Z,11.01
2018-04-14T05:15:19.481Z,11.11
2018-04-14T05:16:19.432Z,11.01
2018-04-14T05:17:19.411Z,11.03
2018-04-14T05:19:41.507Z,11.00
2018-04-14T05:20:41.526Z,11.05
2018-04-14T05:23:04.505Z,11.09
2018-04-14T05:24:04.403Z,11.13
2018-04-14T05:25:04.409Z,11.12
2018-04-14T05:26:04.349Z,11.09
2018-04-14T05:28:27.424Z,11.15
2018-04-14T05:30:59.083Z,11.13
2018-04-14T05:31:50.341Z,11.11
2018-04-14T05:32:50.331Z,11.12
2018-04-14T05:33:50.312Z,11.15
2018-04-14T05:34:50.299Z,11.13
2018-04-14T05:35:50.284Z,11.16
2018-04-14T05:36:50.236Z,11.11
2018-04-14T05:39:21.900Z,11.13
2018-04-14T05:40:13.226Z,11.18
2018-04-14T05:42:36.267Z,11.22
2018-04-14T05:44:59.267Z,11.19
2018-04-14T05:45:59.215Z,11.13
2018-04-14T05:46:59.201Z,11.25
2018-04-14T05:47:59.517Z,11.27
2018-04-14T05:50:22.186Z,11.34
2018-04-14T05:52:45.164Z,11.36
2018-04-14T05:53:45.160Z,11.25
2018-04-14T05:56:08.147Z,11.31
2018-04-14T05:57:08.131Z,11.37
2018-04-14T05:59:31.136Z,11.43
2018-04-14T06:00:31.141Z,11.45
2018-04-14T06:01:31.090Z,11.40
2018-04-14T06:02:31.058Z,11.40
2018-04-14T06:03:31.053Z,11.48
2018-04-14T06:04:31.040Z,11.52
2018-04-14T06:05:31.049Z,11.59
2018-04-14T06:06:30.984Z,11.56
2018-04-14T06:07:30.963Z,11.58
2018-04-14T06:08:30.945Z,11.62
2018-04-14T06:09:30.932Z,11.56
2018-04-14T06:10:30.931Z,11.64
2018-04-14T06:11:30.928Z,11.66
2018-04-14T06:12:30.911Z,11.71
2018-04-14T06:13:30.849Z,11.74
2018-04-14T06:14:30.831Z,11.71
2018-04-14T06:15:30.814Z,11.64
2018-04-14T06:16:30.825Z,11.77
2018-04-14T06:17:30.788Z,11.79
2018-04-14T06:18:30.760Z,11.73
2018-04-14T06:19:30.755Z,11.80
2018-04-14T06:20:30.760Z,11.74
2018-04-14T06:21:30.729Z,11.87
2018-04-14T06:22:30.713Z,11.79
2018-04-14T06:23:30.684Z,11.87
2018-04-14T06:24:30.668Z,11.93
2018-04-14T06:25:30.658Z,11.96
2018-04-14T06:26:30.651Z,11.87
2018-04-14T06:27:30.615Z,12.08
2018-04-14T06:28:30.607Z,12.03
2018-04-14T06:29:30.561Z,12.03
2018-04-14T06:30:30.546Z,12.10
2018-04-14T06:31:30.580Z,12.18
2018-04-14T06:32:30.508Z,12.26
2018-04-14T06:33:30.521Z,12.26
2018-04-14T06:34:30.494Z,12.21
2018-04-14T06:35:30.467Z,12.22
2018-04-14T06:36:30.442Z,12.15
2018-04-14T06:37:30.431Z,12.11
2018-04-14T06:38:30.401Z,12.18
2018-04-14T06:39:30.386Z,12.14
2018-04-14T06:40:30.426Z,12.26
2018-04-14T06:41:30.350Z,12.18
2018-04-14T06:42:30.349Z,12.28
2018-04-14T06:43:30.311Z,12.35
2018-04-14T06:44:30.311Z,12.41
2018-04-14T06:45:30.271Z,12.32
2018-04-14T06:46:30.268Z,12.44
2018-04-14T06:47:30.265Z,12.28
2018-04-14T06:48:30.234Z,12.26
2018-04-14T06:49:30.210Z,12.30
2018-04-14T06:50:30.203Z,12.28
2018-04-14T06:51:30.202Z,12.30
2018-04-14T06:52:30.173Z,12.30
2018-04-14T06:53:30.132Z,12.30
2018-04-14T06:54:30.116Z,12.36
2018-04-14T06:55:30.106Z,12.26
2018-04-14T06:56:30.085Z,12.28
2018-04-14T06:57:30.150Z,12.29
2018-04-14T06:58:30.081Z,12.29
2018-04-14T06:59:30.054Z,12.33
2018-04-14T07:00:30.016Z,12.30
2018-04-14T07:01:30.002Z,12.33
2018-04-14T07:02:29.980Z,12.30
2018-04-14T07:03:29.968Z,12.43
2018-04-14T07:04:30.023Z,12.40
2018-04-14T07:05:29.954Z,12.36
2018-04-14T07:06:29.911Z,12.35
2018-04-14T07:07:29.899Z,12.47
2018-04-14T07:08:29.890Z,12.55
2018-04-14T07:09:29.853Z,12.61
2018-04-14T07:10:29.849Z,12.63
2018-04-14T07:12:52.885Z,12.61
2018-04-14T07:13:52.858Z,12.72
2018-04-14T07:14:52.866Z,12.77
2018-04-14T07:15:52.853Z,12.73
2018-04-14T07:16:52.835Z,12.73
2018-04-14T07:17:52.787Z,12.77
2018-04-14T07:18:52.770Z,12.80
2018-04-14T07:19:52.761Z,12.69
2018-04-14T07:20:52.730Z,12.73
2018-04-14T07:21:52.705Z,12.77
2018-04-14T07:22:52.720Z,12.80
2018-04-14T07:23:52.700Z,12.84
2018-04-14T07:24:52.651Z,12.83
2018-04-14T07:25:52.640Z,12.84
2018-04-14T07:26:52.643Z,12.73
2018-04-14T07:27:52.603Z,12.79
2018-04-14T07:28:52.592Z,12.86
2018-04-14T07:29:52.566Z,12.87
2018-04-14T07:30:52.548Z,12.95
2018-04-14T07:31:52.535Z,12.96
2018-04-14T07:32:52.542Z,13.02
2018-04-14T07:33:52.496Z,13.05
2018-04-14T07:34:52.484Z,13.05
2018-04-14T07:35:52.467Z,13.20
2018-04-14T07:36:52.449Z,13.14
2018-04-14T07:37:52.457Z,13.19
2018-04-14T07:38:52.411Z,13.16
2018-04-14T07:39:52.401Z,13.17
2018-04-14T07:40:52.386Z,13.23
2018-04-14T07:41:52.405Z,13.26
2018-04-14T07:42:52.389Z,13.24
2018-04-14T07:43:52.352Z,13.19
2018-04-14T07:44:52.319Z,13.19
2018-04-14T07:45:52.321Z,13.16
2018-04-14T07:46:52.299Z,13.17
2018-04-14T07:47:52.281Z,13.16
2018-04-14T07:48:52.246Z,13.27
2018-04-14T07:49:52.252Z,13.30
2018-04-14T07:50:52.217Z,13.24
2018-04-14T07:51:52.195Z,13.24
2018-04-14T07:52:52.200Z,13.36
2018-04-14T07:53:52.164Z,13.55
2018-04-14T07:54:52.149Z,13.42
2018-04-14T07:55:52.126Z,13.46
2018-04-14T07:56:52.135Z,13.46
2018-04-14T07:57:52.109Z,13.63
2018-04-14T07:58:52.091Z,13.73
2018-04-14T07:59:52.073Z,13.86
2018-04-14T08:00:52.075Z,13.94
2018-04-14T08:01:52.092Z,13.88
2018-04-14T08:02:52.018Z,13.96
2018-04-14T08:03:51.998Z,13.91
2018-04-14T08:04:52.031Z,13.86
2018-04-14T08:05:51.966Z,13.90
2018-04-14T08:06:51.980Z,13.86
2018-04-14T08:07:51.946Z,13.90
2018-04-14T08:08:51.922Z,14.04
2018-04-14T08:09:51.924Z,14.03
2018-04-14T08:10:51.940Z,14.16
2018-04-14T08:11:51.877Z,13.91
2018-04-14T08:12:51.906Z,13.91
2018-04-14T08:13:51.858Z,13.82
2018-04-14T08:14:51.855Z,13.93
2018-04-14T08:15:51.813Z,13.91
2018-04-14T08:16:51.813Z,14.03
2018-04-14T08:17:51.772Z,14.08
2018-04-14T08:18:51.760Z,14.11
2018-04-14T08:19:51.746Z,14.09
2018-04-14T08:20:51.731Z,14.05
2018-04-14T08:21:51.708Z,14.11
2018-04-14T08:22:51.696Z,14.09
2018-04-14T08:23:51.680Z,14.11
2018-04-14T08:24:51.736Z,14.13
2018-04-14T08:25:51.681Z,14.26
2018-04-14T08:26:51.652Z,14.28
2018-04-14T08:27:51.637Z,14.37
2018-04-14T08:28:51.602Z,14.33
2018-04-14T08:29:51.610Z,14.40
2018-04-14T08:30:51.601Z,14.44
2018-04-14T08:31:51.556Z,14.45
2018-04-14T08:32:51.533Z,14.48
2018-04-14T08:33:51.534Z,14.52
2018-04-14T08:34:51.545Z,14.46
2018-04-14T08:35:51.490Z,14.58
2018-04-14T08:36:51.484Z,14.53
2018-04-14T08:37:51.474Z,14.49
2018-04-14T08:38:51.473Z,14.31
2018-04-14T08:39:51.457Z,14.21
2018-04-14T08:40:51.461Z,14.15
2018-04-14T08:41:51.419Z,14.08
2018-04-14T08:42:51.403Z,14.04
2018-04-14T08:43:51.394Z,14.01
2018-04-14T08:44:51.443Z,14.00
2018-04-14T08:45:51.347Z,14.00
2018-04-14T08:46:51.332Z,14.05
2018-04-14T08:47:51.305Z,14.00
2018-04-14T08:48:51.285Z,14.05
2018-04-14T08:49:51.280Z,14.13
2018-04-14T08:50:51.259Z,14.26
2018-04-14T08:51:51.281Z,14.28
2018-04-14T08:52:51.228Z,14.33
2018-04-14T08:53:51.253Z,14.33
2018-04-14T08:54:51.204Z,14.34
2018-04-14T08:55:51.181Z,14.33
2018-04-14T08:56:51.195Z,14.18
2018-04-14T08:57:51.186Z,14.13
2018-04-14T08:58:51.257Z,14.16
2018-04-14T08:59:51.157Z,14.28
2018-04-14T09:00:51.100Z,14.36
2018-04-14T09:01:51.156Z,14.33
2018-04-14T09:02:51.313Z,14.45
2018-04-14T09:03:51.068Z,14.51
2018-04-14T09:04:51.062Z,14.44
2018-04-14T09:05:51.029Z,14.45
2018-04-14T09:06:51.014Z,14.48
2018-04-14T09:07:51.023Z,14.48
2018-04-14T09:08:50.991Z,14.53
2018-04-14T09:09:50.985Z,14.45
2018-04-14T09:10:50.958Z,14.53
2018-04-14T09:11:50.982Z,14.77
2018-04-14T09:12:50.937Z,14.67
2018-04-14T09:13:50.939Z,14.74
2018-04-14T09:14:50.923Z,14.83
2018-04-14T09:15:50.881Z,14.82
2018-04-14T09:16:50.919Z,14.87
2018-04-14T09:17:50.848Z,14.73
2018-04-14T09:18:50.837Z,14.69
2018-04-14T09:19:50.829Z,14.82
2018-04-14T09:20:50.804Z,14.63
2018-04-14T09:21:50.793Z,14.49
2018-04-14T09:22:50.801Z,14.73
2018-04-14T09:23:50.761Z,14.66
2018-04-14T09:24:50.760Z,14.69
2018-04-14T09:25:50.737Z,14.86
2018-04-14T09:26:50.723Z,14.93
2018-04-14T09:27:50.707Z,15.14
2018-04-14T09:28:50.687Z,15.23
2018-04-14T09:29:50.676Z,15.41
2018-04-14T09:30:50.697Z,15.30
2018-04-14T09:31:50.650Z,15.30
2018-04-14T09:32:50.691Z,15.20
2018-04-14T09:33:50.686Z,15.17
2018-04-14T09:34:50.602Z,15.26
2018-04-14T09:35:50.603Z,15.22
2018-04-14T09:36:50.606Z,15.19
2018-04-14T09:37:50.558Z,14.97
2018-04-14T09:38:50.567Z,15.03
2018-04-14T09:39:50.532Z,14.73
2018-04-14T09:40:50.523Z,14.56
2018-04-14T09:41:50.535Z,14.53
2018-04-14T09:42:50.560Z,14.67
2018-04-14T09:43:50.477Z,14.53
2018-04-14T09:44:50.545Z,14.51
2018-04-14T09:45:50.487Z,14.74
2018-04-14T09:46:50.450Z,14.70
2018-04-14T09:47:50.426Z,14.74
2018-04-14T09:48:50.405Z,14.96
2018-04-14T09:49:50.389Z,14.85
2018-04-14T09:50:50.401Z,14.78
2018-04-14T09:51:50.388Z,14.92
2018-04-14T09:52:50.345Z,14.90
2018-04-14T09:53:50.334Z,15.04
2018-04-14T09:54:50.331Z,15.25
2018-04-14T09:55:50.330Z,15.43
2018-04-14T09:56:50.284Z,15.33
2018-04-14T09:57:50.317Z,15.41
2018-04-14T09:58:50.260Z,15.35
2018-04-14T09:59:50.248Z,15.35
2018-04-14T10:00:50.252Z,15.43
2018-04-14T10:01:50.226Z,15.35
2018-04-14T10:02:50.212Z,15.33
2018-04-14T10:03:50.186Z,15.29
2018-04-14T10:04:50.172Z,15.01
2018-04-14T10:05:50.215Z,14.92
2018-04-14T10:06:50.144Z,14.86
2018-04-14T10:07:50.137Z,14.99
2018-04-14T10:08:50.118Z,14.90
2018-04-14T10:09:50.127Z,15.05
2018-04-14T10:10:50.085Z,15.07
2018-04-14T10:11:50.072Z,15.15
2018-04-14T10:12:50.080Z,15.20
2018-04-14T10:13:50.052Z,15.23
2018-04-14T10:14:50.098Z,15.27
2018-04-14T10:15:50.054Z,15.30
2018-04-14T10:16:50.030Z,15.20
2018-04-14T10:17:49.984Z,15.20
2018-04-14T10:18:49.980Z,15.20
2018-04-14T10:19:49.997Z,15.23
2018-04-14T10:20:49.947Z,15.17
2018-04-14T10:21:49.954Z,15.08
2018-04-14T10:22:49.950Z,15.07
2018-04-14T10:23:49.895Z,15.23
2018-04-14T10:24:49.891Z,15.32
2018-04-14T10:27:12.958Z,15.36
2018-04-14T10:28:12.905Z,15.41
2018-04-14T10:30:43.732Z,15.56
2018-04-14T10:31:35.996Z,15.60
2018-04-14T10:33:30.315Z,15.52
2018-04-14T10:34:30.296Z,15.52
2018-04-14T10:35:30.291Z,15.68
2018-04-14T10:36:30.254Z,15.83
2018-04-14T10:37:30.214Z,15.59
2018-04-14T10:38:30.301Z,15.58
2018-04-14T10:39:30.185Z,15.62
2018-04-14T10:40:30.214Z,15.60
2018-04-14T10:41:30.189Z,15.59
2018-04-14T10:42:30.163Z,15.62
2018-04-14T10:43:30.126Z,15.73
2018-04-14T10:44:30.126Z,15.81
2018-04-14T10:45:30.107Z,15.99
2018-04-14T10:46:30.083Z,16.28
2018-04-14T10:48:53.134Z,16.62
2018-04-14T10:51:24.791Z,16.65
2018-04-14T10:52:16.298Z,16.40
2018-04-14T10:53:16.077Z,16.37
2018-04-14T10:54:16.140Z,16.37
2018-04-14T10:55:16.052Z,16.40
2018-04-14T10:56:16.038Z,16.34
2018-04-14T10:57:16.016Z,16.13
2018-04-14T10:58:16.001Z,16.13
2018-04-14T10:59:15.989Z,16.02
2018-04-14T11:00:15.971Z,15.93
2018-04-14T11:01:15.964Z,15.95
2018-04-14T11:02:15.947Z,15.95
2018-04-14T11:03:15.942Z,15.93
2018-04-14T11:04:15.941Z,15.80
2018-04-14T11:05:15.943Z,15.78
2018-04-14T11:06:15.897Z,15.63
2018-04-14T11:07:15.891Z,15.56
2018-04-14T11:08:15.858Z,15.54
2018-04-14T11:09:15.848Z,15.76
2018-04-14T11:10:15.837Z,15.83
2018-04-14T11:11:15.819Z,15.83
2018-04-14T11:12:15.829Z,15.83
2018-04-14T11:13:15.798Z,15.90
2018-04-14T11:14:15.803Z,16.05
2018-04-14T11:15:15.780Z,16.18
2018-04-14T11:16:15.779Z,16.39
2018-04-14T11:17:15.753Z,16.57
2018-04-14T11:18:15.743Z,16.69
2018-04-14T11:19:15.732Z,16.84
2018-04-14T11:20:15.722Z,16.82
2018-04-14T11:21:15.678Z,16.98
2018-04-14T11:22:15.663Z,16.94
2018-04-14T11:23:15.692Z,17.06
2018-04-14T11:24:15.642Z,16.98
2018-04-14T11:25:15.622Z,17.19
2018-04-14T11:27:37.741Z,17.09
2018-04-14T11:28:37.642Z,17.12
2018-04-14T11:29:37.642Z,17.14
2018-04-14T11:30:37.703Z,17.16
2018-04-14T11:31:37.616Z,17.20
2018-04-14T11:32:37.598Z,17.27
2018-04-14T11:33:37.622Z,17.39
2018-04-14T11:34:37.560Z,17.35
2018-04-14T11:37:00.760Z,17.27
2018-04-14T11:38:00.601Z,17.09
2018-04-14T11:39:00.563Z,17.12
2018-04-14T11:40:00.636Z,17.32
2018-04-14T11:41:00.525Z,17.54
2018-04-14T11:42:00.500Z,17.79
2018-04-14T11:43:00.506Z,18.02
2018-04-14T11:44:00.497Z,18.09
2018-04-14T11:45:00.636Z,18.03
2018-04-14T11:46:09.729Z,17.91
2018-04-14T11:47:54.951Z,18.17
2018-04-14T11:48:54.876Z,18.15
2018-04-14T11:49:54.962Z,18.02
2018-04-14T11:50:54.872Z,17.97
